sensor_id;sensor_type;location;lat;lon;timestamp;pressure;altitude;pressure_sealevel;temperature;humidity
50732;BME280;36700;50.488;2.544;2023-06-10T00:02:08;100752.47;;;20.67;55.99
50732;BME280;36700;50.488;2.544;2023-06-10T00:04:36;100757.09;;;20.66;56.30
50732;BME280;36700;50.488;2.544;2023-06-10T00:07:05;100759.28;;;20.64;56.14
50732;BME280;36700;50.488;2.544;2023-06-10T00:09:37;100755.72;;;20.64;56.18
50732;BME280;36700;50.488;2.544;2023-06-10T00:12:05;100755.72;;;20.64;56.08
50732;BME280;36700;50.488;2.544;2023-06-10T00:14:33;100748.63;;;20.63;56.33
50732;BME280;36700;50.488;2.544;2023-06-10T00:16:59;100752.44;;;20.62;56.32
50732;BME280;36700;50.488;2.544;2023-06-10T00:19:25;100753.53;;;20.61;56.48
50732;BME280;36700;50.488;2.544;2023-06-10T00:21:56;100749.97;;;20.60;56.08
50732;BME280;36700;50.488;2.544;2023-06-10T00:24:22;100751.88;;;20.59;56.06
50732;BME280;36700;50.488;2.544;2023-06-10T00:26:48;100750.25;;;20.58;56.47
50732;BME280;36700;50.488;2.544;2023-06-10T00:29:14;100743.97;;;20.58;56.14
50732;BME280;36700;50.488;2.544;2023-06-10T00:31:40;100751.59;;;20.56;56.09
50732;BME280;36700;50.488;2.544;2023-06-10T00:34:07;100748.84;;;20.56;56.33
50732;BME280;36700;50.488;2.544;2023-06-10T00:36:33;100749.94;;;20.55;56.31
50732;BME280;36700;50.488;2.544;2023-06-10T00:38:59;100751.03;;;20.54;56.63
50732;BME280;36700;50.488;2.544;2023-06-10T00:41:25;100751.03;;;20.54;56.78
50732;BME280;36700;50.488;2.544;2023-06-10T00:43:54;100749.66;;;20.51;56.67
50732;BME280;36700;50.488;2.544;2023-06-10T00:46:21;100752.41;;;20.51;56.52
50732;BME280;36700;50.488;2.544;2023-06-10T00:48:48;100749.94;;;20.50;56.38
50732;BME280;36700;50.488;2.544;2023-06-10T00:51:15;100742.56;;;20.50;56.31
50732;BME280;36700;50.488;2.544;2023-06-10T00:53:42;100743.66;;;20.49;56.41
50732;BME280;36700;50.488;2.544;2023-06-10T00:56:09;100743.09;;;20.47;56.46
50732;BME280;36700;50.488;2.544;2023-06-10T00:58:35;100743.09;;;20.47;56.62
50732;BME280;36700;50.488;2.544;2023-06-10T01:01:02;100745.28;;;20.45;56.93
50732;BME280;36700;50.488;2.544;2023-06-10T01:03:29;100747.16;;;20.44;56.90
50732;BME280;36700;50.488;2.544;2023-06-10T01:06:48;100744.44;;;20.44;56.57
50732;BME280;36700;50.488;2.544;2023-06-10T01:11:35;100747.72;;;20.41;56.77
50732;BME280;36700;50.488;2.544;2023-06-10T01:14:03;100755.09;;;20.41;57.04
50732;BME280;36700;50.488;2.544;2023-06-10T01:16:31;100757.81;;;20.41;56.89
50732;BME280;36700;50.488;2.544;2023-06-10T01:18:57;100754.28;;;20.40;57.03
50732;BME280;36700;50.488;2.544;2023-06-10T01:21:23;100755.38;;;20.39;56.91
50732;BME280;36700;50.488;2.544;2023-06-10T01:23:52;100755.63;;;20.38;57.13
50732;BME280;36700;50.488;2.544;2023-06-10T01:26:20;100755.63;;;20.38;56.97
50732;BME280;36700;50.488;2.544;2023-06-10T01:31:57;100758.63;;;20.36;57.06
50732;BME280;36700;50.488;2.544;2023-06-10T01:34:17;100751.78;;;20.34;57.14
50732;BME280;36700;50.488;2.544;2023-06-10T01:36:48;100755.34;;;20.34;57.18
50732;BME280;36700;50.488;2.544;2023-06-10T01:39:18;100753.72;;;20.33;57.19
50732;BME280;36700;50.488;2.544;2023-06-10T01:41:47;100745.78;;;20.31;56.90
50732;BME280;36700;50.488;2.544;2023-06-10T01:44:20;100763.78;;;20.33;56.97
50732;BME280;36700;50.488;2.544;2023-06-10T01:46:47;100760.22;;;20.32;57.09
50732;BME280;36700;50.488;2.544;2023-06-10T01:49:13;100757.78;;;20.30;56.79
50732;BME280;36700;50.488;2.544;2023-06-10T01:51:39;100753.41;;;20.29;56.87
50732;BME280;36700;50.488;2.544;2023-06-10T01:54:05;100758.03;;;20.29;56.93
50732;BME280;36700;50.488;2.544;2023-06-10T01:56:32;100753.09;;;20.26;56.88
50732;BME280;36700;50.488;2.544;2023-06-10T01:58:58;100764.59;;;20.28;57.30
50732;BME280;36700;50.488;2.544;2023-06-10T02:01:28;100763.75;;;20.27;56.98
50732;BME280;36700;50.488;2.544;2023-06-10T02:03:54;100763.75;;;20.27;57.13
50732;BME280;36700;50.488;2.544;2023-06-10T02:06:20;100766.75;;;20.26;57.06
50732;BME280;36700;50.488;2.544;2023-06-10T02:08:46;100769.47;;;20.26;57.51
50732;BME280;36700;50.488;2.544;2023-06-10T02:11:12;100769.78;;;20.24;57.40
50732;BME280;36700;50.488;2.544;2023-06-10T02:13:38;100767.03;;;20.24;57.13
50732;BME280;36700;50.488;2.544;2023-06-10T02:16:04;100769.47;;;20.21;57.35
50732;BME280;36700;50.488;2.544;2023-06-10T02:18:31;100774.66;;;20.22;57.14
50732;BME280;36700;50.488;2.544;2023-06-10T02:20:57;100767.56;;;20.21;57.06
50732;BME280;36700;50.488;2.544;2023-06-10T02:23:23;100767.81;;;20.20;56.87
50732;BME280;36700;50.488;2.544;2023-06-10T02:25:49;100767.81;;;20.20;57.59
50732;BME280;36700;50.488;2.544;2023-06-10T02:28:15;100767.00;;;20.19;57.26
50732;BME280;36700;50.488;2.544;2023-06-10T02:30:41;100768.91;;;20.18;57.53
50732;BME280;36700;50.488;2.544;2023-06-10T02:33:08;100761.81;;;20.17;57.36
50732;BME280;36700;50.488;2.544;2023-06-10T02:35:38;100770.00;;;20.17;57.48
50732;BME280;36700;50.488;2.544;2023-06-10T02:38:04;100770.25;;;20.16;57.30
50732;BME280;36700;50.488;2.544;2023-06-10T02:40:30;100766.72;;;20.15;57.17
50732;BME280;36700;50.488;2.544;2023-06-10T02:42:56;100768.06;;;20.13;57.22
50732;BME280;36700;50.488;2.544;2023-06-10T02:45:22;100768.88;;;20.13;57.15
50732;BME280;36700;50.488;2.544;2023-06-10T02:47:48;100769.16;;;20.12;57.35
50732;BME280;36700;50.488;2.544;2023-06-10T02:50:14;100759.31;;;20.11;57.77
50732;BME280;36700;50.488;2.544;2023-06-10T02:52:41;100762.88;;;20.11;57.46
50732;BME280;36700;50.488;2.544;2023-06-10T02:55:07;100768.59;;;20.10;57.13
50732;BME280;36700;50.488;2.544;2023-06-10T02:57:33;100771.31;;;20.10;57.50
50732;BME280;36700;50.488;2.544;2023-06-10T02:59:59;100775.13;;;20.09;57.43
50732;BME280;36700;50.488;2.544;2023-06-10T03:02:25;100773.75;;;20.06;57.45
50732;BME280;36700;50.488;2.544;2023-06-10T03:04:55;100778.13;;;20.07;57.36
50732;BME280;36700;50.488;2.544;2023-06-10T03:07:21;100778.13;;;20.07;57.82
50732;BME280;36700;50.488;2.544;2023-06-10T03:09:47;100781.13;;;20.06;57.39
50732;BME280;36700;50.488;2.544;2023-06-10T03:12:13;100771.28;;;20.04;57.73
50732;BME280;36700;50.488;2.544;2023-06-10T03:14:39;100777.81;;;20.03;57.39
50732;BME280;36700;50.488;2.544;2023-06-10T03:17:05;100775.09;;;20.03;57.57
50732;BME280;36700;50.488;2.544;2023-06-10T03:19:31;100776.19;;;20.02;57.34
50732;BME280;36700;50.488;2.544;2023-06-10T03:22:12;100775.38;;;20.02;57.80
50732;BME280;36700;50.488;2.544;2023-06-10T03:24:38;100777.28;;;20.01;57.80
50732;BME280;36700;50.488;2.544;2023-06-10T03:27:07;100775.91;;;19.99;57.49
50732;BME280;36700;50.488;2.544;2023-06-10T03:29:34;100776.97;;;19.98;57.48
50732;BME280;36700;50.488;2.544;2023-06-10T03:32:00;100786.81;;;19.99;58.07
50732;BME280;36700;50.488;2.544;2023-06-10T03:34:26;100774.50;;;19.96;57.83
50732;BME280;36700;50.488;2.544;2023-06-10T03:36:52;100784.34;;;19.97;57.46
50732;BME280;36700;50.488;2.544;2023-06-10T03:39:18;100785.19;;;19.98;57.54
50732;BME280;36700;50.488;2.544;2023-06-10T03:41:44;100785.44;;;19.96;57.93
50732;BME280;36700;50.488;2.544;2023-06-10T03:44:10;100775.56;;;19.95;57.95
50732;BME280;36700;50.488;2.544;2023-06-10T03:46:36;100782.94;;;19.95;57.73
50732;BME280;36700;50.488;2.544;2023-06-10T03:49:02;100786.75;;;19.94;57.88
50732;BME280;36700;50.488;2.544;2023-06-10T03:51:29;100785.94;;;19.93;57.73
50732;BME280;36700;50.488;2.544;2023-06-10T03:53:55;100788.66;;;19.93;57.77
50732;BME280;36700;50.488;2.544;2023-06-10T03:56:21;100790.56;;;19.92;57.55
50732;BME280;36700;50.488;2.544;2023-06-10T03:58:47;100788.09;;;19.91;58.21
50732;BME280;36700;50.488;2.544;2023-06-10T04:01:13;100796.28;;;19.91;57.56
50732;BME280;36700;50.488;2.544;2023-06-10T04:03:39;100791.06;;;19.89;57.58
50732;BME280;36700;50.488;2.544;2023-06-10T04:06:07;100794.09;;;19.88;57.88
50732;BME280;36700;50.488;2.544;2023-06-10T04:08:33;100793.00;;;19.89;58.03
50732;BME280;36700;50.488;2.544;2023-06-10T04:10:59;100795.72;;;19.89;57.58
50732;BME280;36700;50.488;2.544;2023-06-10T04:13:25;100799.53;;;19.88;57.88
50732;BME280;36700;50.488;2.544;2023-06-10T04:15:51;100795.97;;;19.87;57.95
50732;BME280;36700;50.488;2.544;2023-06-10T04:18:17;100808.81;;;19.87;57.74
50732;BME280;36700;50.488;2.544;2023-06-10T04:20:43;100808.81;;;19.87;58.00
50732;BME280;36700;50.488;2.544;2023-06-10T04:23:10;100807.97;;;19.86;57.77
50732;BME280;36700;50.488;2.544;2023-06-10T04:25:36;100798.97;;;19.86;57.88
50732;BME280;36700;50.488;2.544;2023-06-10T04:28:02;100805.50;;;19.85;57.81
50732;BME280;36700;50.488;2.544;2023-06-10T04:30:28;100800.06;;;19.85;57.52
50732;BME280;36700;50.488;2.544;2023-06-10T04:32:54;100806.59;;;19.84;57.67
50732;BME280;36700;50.488;2.544;2023-06-10T04:35:20;100809.31;;;19.84;57.93
50732;BME280;36700;50.488;2.544;2023-06-10T04:37:47;100805.75;;;19.83;58.09
50732;BME280;36700;50.488;2.544;2023-06-10T04:40:13;100800.84;;;19.80;57.61
50732;BME280;36700;50.488;2.544;2023-06-10T04:42:39;100803.03;;;19.78;57.77
50732;BME280;36700;50.488;2.544;2023-06-10T04:45:05;100806.06;;;19.82;57.59
50732;BME280;36700;50.488;2.544;2023-06-10T04:47:31;100814.22;;;19.82;58.12
50732;BME280;36700;50.488;2.544;2023-06-10T04:49:59;100805.75;;;19.78;57.71
50732;BME280;36700;50.488;2.544;2023-06-10T04:52:25;100814.75;;;19.78;57.99
50732;BME280;36700;50.488;2.544;2023-06-10T04:54:52;100811.22;;;19.78;57.76
50732;BME280;36700;50.488;2.544;2023-06-10T04:57:19;100808.47;;;19.78;58.09
50732;BME280;36700;50.488;2.544;2023-06-10T04:59:46;100805.75;;;19.78;58.06
50732;BME280;36700;50.488;2.544;2023-06-10T05:02:12;100803.03;;;19.78;57.56
50732;BME280;36700;50.488;2.544;2023-06-10T05:04:38;100813.34;;;19.76;57.73
50732;BME280;36700;50.488;2.544;2023-06-10T05:07:05;100808.72;;;19.76;57.70
50732;BME280;36700;50.488;2.544;2023-06-10T05:09:31;100807.91;;;19.76;57.70
50732;BME280;36700;50.488;2.544;2023-06-10T05:11:58;100801.88;;;19.74;58.11
50732;BME280;36700;50.488;2.544;2023-06-10T05:14:24;100807.91;;;19.76;58.01
50732;BME280;36700;50.488;2.544;2023-06-10T05:16:50;100809.81;;;19.75;58.21
50732;BME280;36700;50.488;2.544;2023-06-10T05:19:17;100817.16;;;19.75;57.94
50732;BME280;36700;50.488;2.544;2023-06-10T05:21:44;100800.81;;;19.75;58.13
50732;BME280;36700;50.488;2.544;2023-06-10T05:24:11;100810.91;;;19.74;57.70
50732;BME280;36700;50.488;2.544;2023-06-10T05:26:37;100806.25;;;19.75;57.77
50732;BME280;36700;50.488;2.544;2023-06-10T05:29:04;100807.34;;;19.74;57.81
50732;BME280;36700;50.488;2.544;2023-06-10T05:31:31;100804.63;;;19.74;57.98
50732;BME280;36700;50.488;2.544;2023-06-10T05:33:57;100810.06;;;19.74;57.73
50732;BME280;36700;50.488;2.544;2023-06-10T05:36:23;100813.88;;;19.73;57.85
50732;BME280;36700;50.488;2.544;2023-06-10T05:38:51;100811.16;;;19.73;58.21
50732;BME280;36700;50.488;2.544;2023-06-10T05:41:18;100813.88;;;19.73;57.91
50732;BME280;36700;50.488;2.544;2023-06-10T05:43:46;100825.59;;;19.73;57.87
50732;BME280;36700;50.488;2.544;2023-06-10T05:46:12;100815.78;;;19.72;58.30
50732;BME280;36700;50.488;2.544;2023-06-10T05:48:38;100816.03;;;19.71;58.01
50732;BME280;36700;50.488;2.544;2023-06-10T05:51:04;100814.97;;;19.72;57.91
50732;BME280;36700;50.488;2.544;2023-06-10T05:53:31;100818.50;;;19.72;57.92
50732;BME280;36700;50.488;2.544;2023-06-10T05:55:58;100823.97;;;19.72;57.86
50732;BME280;36700;50.488;2.544;2023-06-10T05:58:24;100825.59;;;19.73;57.87
50732;BME280;36700;50.488;2.544;2023-06-10T06:00:53;100824.81;;;19.73;58.36
50732;BME280;36700;50.488;2.544;2023-06-10T06:03:19;100829.44;;;19.72;58.18
50732;BME280;36700;50.488;2.544;2023-06-10T06:05:45;100823.16;;;19.72;58.16
50732;BME280;36700;50.488;2.544;2023-06-10T06:08:12;100831.91;;;19.74;57.98
50732;BME280;36700;50.488;2.544;2023-06-10T06:10:39;100830.25;;;19.73;57.77
50732;BME280;36700;50.488;2.544;2023-06-10T06:13:06;100825.59;;;19.73;58.25
50732;BME280;36700;50.488;2.544;2023-06-10T06:15:35;100828.34;;;19.73;57.86
50732;BME280;36700;50.488;2.544;2023-06-10T06:18:01;100828.09;;;19.75;57.80
50732;BME280;36700;50.488;2.544;2023-06-10T06:20:27;100822.88;;;19.73;57.88
50732;BME280;36700;50.488;2.544;2023-06-10T06:22:54;100832.75;;;19.80;57.80
50732;BME280;36700;50.488;2.544;2023-06-10T06:25:20;100830.31;;;19.78;57.53
50732;BME280;36700;50.488;2.544;2023-06-10T06:27:46;100830.66;;;19.92;57.85
50732;BME280;36700;50.488;2.544;2023-06-10T06:30:12;100832.97;;;20.00;57.24
50732;BME280;36700;50.488;2.544;2023-06-10T06:32:38;100836.28;;;20.08;56.90
50732;BME280;36700;50.488;2.544;2023-06-10T06:35:04;100838.22;;;20.12;57.05
50732;BME280;36700;50.488;2.544;2023-06-10T06:37:33;100845.38;;;20.24;56.60
50732;BME280;36700;50.488;2.544;2023-06-10T06:39:59;100852.22;;;20.26;56.76
50732;BME280;36700;50.488;2.544;2023-06-10T06:42:25;100850.34;;;20.27;56.32
50732;BME280;36700;50.488;2.544;2023-06-10T06:44:51;100843.53;;;20.29;56.69
50732;BME280;36700;50.488;2.544;2023-06-10T06:47:17;100843.03;;;20.38;56.69
50732;BME280;36700;50.488;2.544;2023-06-10T06:49:46;100841.72;;;20.45;56.00
50732;BME280;36700;50.488;2.544;2023-06-10T06:52:13;100842.53;;;20.51;56.24
50732;BME280;36700;50.488;2.544;2023-06-10T06:54:39;100847.50;;;20.59;55.67
50732;BME280;36700;50.488;2.544;2023-06-10T06:57:05;100840.09;;;20.55;56.03
50732;BME280;36700;50.488;2.544;2023-06-10T06:59:31;100848.38;;;20.70;55.99
50732;BME280;36700;50.488;2.544;2023-06-10T07:01:57;100848.13;;;20.77;55.79
50732;BME280;36700;50.488;2.544;2023-06-10T07:04:23;100850.09;;;20.87;55.58
50732;BME280;36700;50.488;2.544;2023-06-10T07:06:49;100849.59;;;20.95;55.34
50732;BME280;36700;50.488;2.544;2023-06-10T07:09:15;100855.91;;;21.01;55.44
50732;BME280;36700;50.488;2.544;2023-06-10T07:11:41;100856.75;;;21.07;55.20
50732;BME280;36700;50.488;2.544;2023-06-10T07:14:07;100864.41;;;21.15;55.12
50732;BME280;36700;50.488;2.544;2023-06-10T07:16:34;100865.56;;;21.24;54.58
50732;BME280;36700;50.488;2.544;2023-06-10T07:19:00;100863.94;;;21.44;53.98
50732;BME280;36700;50.488;2.544;2023-06-10T07:21:25;100857.69;;;21.70;53.48
50732;BME280;36700;50.488;2.544;2023-06-10T07:23:54;100861.53;;;22.00;52.63
50732;BME280;36700;50.488;2.544;2023-06-10T07:26:22;100853.81;;;22.43;51.54
50732;BME280;36700;50.488;2.544;2023-06-10T07:28:48;100855.75;;;23.59;48.56
50732;BME280;36700;50.488;2.544;2023-06-10T07:31:14;100860.47;;;25.16;44.74
50732;BME280;36700;50.488;2.544;2023-06-10T07:33:40;100867.34;;;25.90;43.09
50732;BME280;36700;50.488;2.544;2023-06-10T07:36:06;100864.38;;;26.33;42.03
50732;BME280;36700;50.488;2.544;2023-06-10T07:38:33;100872.75;;;25.62;43.31
50732;BME280;36700;50.488;2.544;2023-06-10T07:40:59;100868.78;;;24.13;46.66
50732;BME280;36700;50.488;2.544;2023-06-10T07:43:25;100866.94;;;23.18;49.11
50732;BME280;36700;50.488;2.544;2023-06-10T07:45:51;100872.44;;;22.52;50.29
50732;BME280;36700;50.488;2.544;2023-06-10T07:48:17;100876.88;;;22.01;51.83
50732;BME280;36700;50.488;2.544;2023-06-10T07:50:43;100880.69;;;21.74;52.72
50732;BME280;36700;50.488;2.544;2023-06-10T07:53:10;100881.44;;;21.48;53.31
50732;BME280;36700;50.488;2.544;2023-06-10T07:55:36;100883.59;;;21.20;53.98
50732;BME280;36700;50.488;2.544;2023-06-10T07:58:02;100884.63;;;21.09;54.74
50732;BME280;36700;50.488;2.544;2023-06-10T08:00:27;100879.69;;;21.01;55.17
50732;BME280;36700;50.488;2.544;2023-06-10T08:02:54;100881.06;;;20.98;55.24
50732;BME280;36700;50.488;2.544;2023-06-10T08:05:20;100881.00;;;20.88;55.22
50732;BME280;36700;50.488;2.544;2023-06-10T08:07:46;100884.59;;;20.98;55.25
50732;BME280;36700;50.488;2.544;2023-06-10T08:10:12;100881.06;;;20.98;55.23
50732;BME280;36700;50.488;2.544;2023-06-10T08:12:38;100887.31;;;20.98;55.60
50732;BME280;36700;50.488;2.544;2023-06-10T08:15:04;100884.31;;;21.00;55.34
50732;BME280;36700;50.488;2.544;2023-06-10T08:17:30;100882.94;;;20.97;55.37
50732;BME280;36700;50.488;2.544;2023-06-10T08:19:56;100885.66;;;20.92;55.64
50732;BME280;36700;50.488;2.544;2023-06-10T08:22:22;100883.72;;;20.88;56.06
50732;BME280;36700;50.488;2.544;2023-06-10T08:24:48;100873.56;;;20.83;55.72
50732;BME280;36700;50.488;2.544;2023-06-10T08:27:14;100882.88;;;20.82;55.79
50732;BME280;36700;50.488;2.544;2023-06-10T08:29:40;100885.03;;;20.80;55.69
50732;BME280;36700;50.488;2.544;2023-06-10T08:32:06;100881.22;;;20.76;55.81
50732;BME280;36700;50.488;2.544;2023-06-10T08:34:35;100883.72;;;20.88;56.32
50732;BME280;36700;50.488;2.544;2023-06-10T08:37:02;100880.78;;;20.94;55.99
50732;BME280;36700;50.488;2.544;2023-06-10T08:39:28;100879.66;;;20.95;56.16
50732;BME280;36700;50.488;2.544;2023-06-10T08:44:31;100879.91;;;20.89;56.31
50732;BME280;36700;50.488;2.544;2023-06-10T08:47:00;100879.09;;;20.88;56.34
50732;BME280;36700;50.488;2.544;2023-06-10T08:49:27;100877.72;;;20.85;56.47
50732;BME280;36700;50.488;2.544;2023-06-10T08:51:59;100878.22;;;20.82;56.13
50732;BME280;36700;50.488;2.544;2023-06-10T08:54:31;100883.38;;;20.79;56.04
50732;BME280;36700;50.488;2.544;2023-06-10T08:56:59;100873.00;;;20.76;56.79
50732;BME280;36700;50.488;2.544;2023-06-10T08:59:25;100871.63;;;20.73;56.60
50732;BME280;36700;50.488;2.544;2023-06-10T09:01:52;100869.41;;;20.70;56.58
50732;BME280;36700;50.488;2.544;2023-06-10T09:04:18;100866.69;;;20.70;56.36
50732;BME280;36700;50.488;2.544;2023-06-10T09:06:46;100871.34;;;20.69;56.45
50732;BME280;36700;50.488;2.544;2023-06-10T09:09:14;100878.97;;;20.67;56.62
50732;BME280;36700;50.488;2.544;2023-06-10T09:11:43;100880.88;;;20.67;56.63
50732;BME280;36700;50.488;2.544;2023-06-10T09:14:09;100882.78;;;20.66;56.67
50732;BME280;36700;50.488;2.544;2023-06-10T09:16:38;100872.09;;;20.65;56.85
50732;BME280;36700;50.488;2.544;2023-06-10T09:19:04;100878.66;;;20.64;57.08
50732;BME280;36700;50.488;2.544;2023-06-10T09:21:34;100875.38;;;20.62;56.96
50732;BME280;36700;50.488;2.544;2023-06-10T09:24:02;100883.03;;;20.65;56.68
50732;BME280;36700;50.488;2.544;2023-06-10T09:26:28;100880.59;;;20.63;57.13
50732;BME280;36700;50.488;2.544;2023-06-10T09:29:05;100877.88;;;20.63;57.01
50732;BME280;36700;50.488;2.544;2023-06-10T09:31:34;100884.38;;;20.62;57.25
50732;BME280;36700;50.488;2.544;2023-06-10T09:34:14;100876.19;;;20.62;57.19
50732;BME280;36700;50.488;2.544;2023-06-10T09:36:42;100878.13;;;20.62;57.40
50732;BME280;36700;50.488;2.544;2023-06-10T09:39:17;100875.66;;;20.60;56.97
50732;BME280;36700;50.488;2.544;2023-06-10T09:41:44;100872.09;;;20.59;57.53
50732;BME280;36700;50.488;2.544;2023-06-10T09:44:20;100872.28;;;20.96;56.74
50732;BME280;36700;50.488;2.544;2023-06-10T09:46:48;100872.44;;;21.69;54.22
50732;BME280;36700;50.488;2.544;2023-06-10T09:49:16;100876.84;;;22.11;53.35
50732;BME280;36700;50.488;2.544;2023-06-10T09:51:50;100873.84;;;22.28;52.31
50732;BME280;36700;50.488;2.544;2023-06-10T09:54:16;100867.53;;;22.33;52.20
50732;BME280;36700;50.488;2.544;2023-06-10T09:56:42;100871.06;;;22.44;52.02
50732;BME280;36700;50.488;2.544;2023-06-10T09:59:08;100867.47;;;22.64;51.47
50732;BME280;36700;50.488;2.544;2023-06-10T10:01:34;100868.25;;;22.70;51.50
50732;BME280;36700;50.488;2.544;2023-06-10T10:04:00;100874.00;;;22.73;51.56
50732;BME280;36700;50.488;2.544;2023-06-10T10:06:27;100864.63;;;22.85;51.44
50732;BME280;36700;50.488;2.544;2023-06-10T10:08:54;100864.31;;;22.97;50.78
50732;BME280;36700;50.488;2.544;2023-06-10T10:11:22;100862.63;;;23.06;50.65
50732;BME280;36700;50.488;2.544;2023-06-10T10:13:50;100865.34;;;23.11;50.28
50732;BME280;36700;50.488;2.544;2023-06-10T10:16:21;100869.72;;;23.12;50.90
50732;BME280;36700;50.488;2.544;2023-06-10T10:18:54;100874.59;;;23.26;50.21
50732;BME280;36700;50.488;2.544;2023-06-10T10:21:26;100866.63;;;23.30;50.25
50732;BME280;36700;50.488;2.544;2023-06-10T10:23:53;100863.06;;;23.34;50.26
50732;BME280;36700;50.488;2.544;2023-06-10T10:26:25;100872.38;;;23.38;50.37
50732;BME280;36700;50.488;2.544;2023-06-10T10:31:49;100864.66;;;23.40;50.17
50732;BME280;36700;50.488;2.544;2023-06-10T10:34:19;100870.66;;;23.43;49.82
50732;BME280;36700;50.488;2.544;2023-06-10T10:36:47;100873.97;;;23.45;49.88
50732;BME280;36700;50.488;2.544;2023-06-10T10:39:14;100869.78;;;23.52;49.60
50732;BME280;36700;50.488;2.544;2023-06-10T10:41:41;100859.66;;;23.48;49.92
50732;BME280;36700;50.488;2.544;2023-06-10T10:44:08;100856.91;;;23.48;49.92
50732;BME280;36700;50.488;2.544;2023-06-10T10:46:49;100866.75;;;23.54;50.26
50732;BME280;36700;50.488;2.544;2023-06-10T10:49:15;100865.13;;;23.53;50.00
50732;BME280;36700;50.488;2.544;2023-06-10T10:51:57;100861.28;;;23.54;50.27
50732;BME280;36700;50.488;2.544;2023-06-10T10:54:31;100855.78;;;23.54;50.15
50732;BME280;36700;50.488;2.544;2023-06-10T10:57:10;100858.28;;;23.50;50.37
50732;BME280;36700;50.488;2.544;2023-06-10T10:59:54;100860.19;;;23.50;50.26
50732;BME280;36700;50.488;2.544;2023-06-10T11:05:02;100862.69;;;23.46;50.44
50732;BME280;36700;50.488;2.544;2023-06-10T11:07:33;100863.00;;;23.45;50.62
50732;BME280;36700;50.488;2.544;2023-06-10T11:15:13;100849.56;;;23.43;50.53
50732;BME280;36700;50.488;2.544;2023-06-10T11:33:54;100849.06;;;23.36;50.60
50732;BME280;36700;50.488;2.544;2023-06-10T11:36:23;100843.84;;;23.34;51.15
50732;BME280;36700;50.488;2.544;2023-06-10T11:38:50;100844.66;;;23.35;50.84
50732;BME280;36700;50.488;2.544;2023-06-10T11:41:19;100844.66;;;23.35;50.70
50732;BME280;36700;50.488;2.544;2023-06-10T11:43:45;100841.38;;;23.33;50.76
50732;BME280;36700;50.488;2.544;2023-06-10T11:46:14;100849.09;;;23.31;50.89
50732;BME280;36700;50.488;2.544;2023-06-10T11:48:51;100849.09;;;23.31;51.12
50732;BME280;36700;50.488;2.544;2023-06-10T11:51:18;100842.75;;;23.30;51.01
50732;BME280;36700;50.488;2.544;2023-06-10T11:53:48;100842.75;;;23.30;51.36
50732;BME280;36700;50.488;2.544;2023-06-10T11:56:22;100840.00;;;23.30;50.99
50732;BME280;36700;50.488;2.544;2023-06-10T11:58:57;100836.72;;;23.28;51.43
50732;BME280;36700;50.488;2.544;2023-06-10T12:01:25;100844.13;;;23.27;51.33
50732;BME280;36700;50.488;2.544;2023-06-10T12:04:07;100835.09;;;23.27;51.29
50732;BME280;36700;50.488;2.544;2023-06-10T12:06:44;100832.34;;;23.27;51.19
50732;BME280;36700;50.488;2.544;2023-06-10T12:09:25;100829.88;;;23.25;51.52
50732;BME280;36700;50.488;2.544;2023-06-10T12:11:57;100837.59;;;23.23;51.05
50732;BME280;36700;50.488;2.544;2023-06-10T12:19:57;100822.50;;;23.21;51.21
50732;BME280;36700;50.488;2.544;2023-06-10T12:22:23;100829.91;;;23.20;51.11
50732;BME280;36700;50.488;2.544;2023-06-10T12:25:04;100828.28;;;23.19;51.75
50732;BME280;36700;50.488;2.544;2023-06-10T12:27:31;100826.91;;;23.17;51.39
50732;BME280;36700;50.488;2.544;2023-06-10T12:29:58;100818.69;;;23.17;51.49
50732;BME280;36700;50.488;2.544;2023-06-10T12:32:43;100824.44;;;23.15;51.51
50732;BME280;36700;50.488;2.544;2023-06-10T12:35:09;100827.50;;;23.13;51.78
50732;BME280;36700;50.488;2.544;2023-06-10T12:37:36;100823.09;;;23.12;51.49
50732;BME280;36700;50.488;2.544;2023-06-10T12:40:05;100820.34;;;23.12;51.45
50732;BME280;36700;50.488;2.544;2023-06-10T12:42:32;100825.31;;;23.10;51.69
50732;BME280;36700;50.488;2.544;2023-06-10T12:45:05;100827.78;;;23.12;51.65
50732;BME280;36700;50.488;2.544;2023-06-10T12:47:34;100820.50;;;23.37;49.14
50732;BME280;36700;50.488;2.544;2023-06-10T12:50:01;100826.69;;;23.53;47.33
50732;BME280;36700;50.488;2.544;2023-06-10T12:52:28;100821.00;;;23.44;48.14
50732;BME280;36700;50.488;2.544;2023-06-10T12:54:55;100815.06;;;23.32;48.47
50732;BME280;36700;50.488;2.544;2023-06-10T12:57:21;100815.38;;;23.20;48.81
50732;BME280;36700;50.488;2.544;2023-06-10T12:59:48;100824.47;;;23.10;49.21
50732;BME280;36700;50.488;2.544;2023-06-10T13:02:19;100819.88;;;23.00;49.87
50732;BME280;36700;50.488;2.544;2023-06-10T13:04:46;100813.09;;;22.92;49.62
50732;BME280;36700;50.488;2.544;2023-06-10T13:07:12;100801.59;;;22.85;50.18
50732;BME280;36700;50.488;2.544;2023-06-10T13:09:38;100811.50;;;22.81;50.28
50732;BME280;36700;50.488;2.544;2023-06-10T13:12:05;100809.31;;;22.72;50.92
50732;BME280;36700;50.488;2.544;2023-06-10T13:14:31;100813.44;;;22.70;51.34
50732;BME280;36700;50.488;2.544;2023-06-10T13:16:57;100815.41;;;22.64;51.36
50732;BME280;36700;50.488;2.544;2023-06-10T13:19:23;100807.19;;;22.59;51.41
50732;BME280;36700;50.488;2.544;2023-06-10T13:21:49;100812.13;;;22.57;51.59
50732;BME280;36700;50.488;2.544;2023-06-10T13:24:15;100807.47;;;22.52;52.02
50732;BME280;36700;50.488;2.544;2023-06-10T13:26:41;100805.28;;;22.49;51.71
50732;BME280;36700;50.488;2.544;2023-06-10T13:29:07;100795.16;;;22.44;52.28
50732;BME280;36700;50.488;2.544;2023-06-10T13:31:40;100798.44;;;22.41;52.45
50732;BME280;36700;50.488;2.544;2023-06-10T13:34:06;100807.78;;;22.40;52.41